createdAt,value
2023-05-12T00:00:57.011Z,18.25
2023-05-12T00:01:57.045Z,18.25
2023-05-12T00:02:57.138Z,18.16
2023-05-12T00:03:57.367Z,18.17
2023-05-12T00:04:57.292Z,18.10
2023-05-12T00:05:57.181Z,18.09
2023-05-12T00:06:57.221Z,18.11
2023-05-12T00:07:57.251Z,18.01
2023-05-12T00:08:57.297Z,18.05
2023-05-12T00:09:57.324Z,18.09
2023-05-12T00:10:57.355Z,18.04
2023-05-12T00:11:57.390Z,17.98
2023-05-12T00:12:57.458Z,18.10
2023-05-12T00:13:57.527Z,17.98
2023-05-12T00:14:57.495Z,17.94
2023-05-12T00:15:57.603Z,17.98
2023-05-12T00:16:57.603Z,17.92
2023-05-12T00:17:57.660Z,17.96
2023-05-12T00:18:57.655Z,17.92
2023-05-12T00:19:57.666Z,17.99
2023-05-12T00:20:57.706Z,17.81
2023-05-12T00:21:57.740Z,17.89
2023-05-12T00:22:57.777Z,17.91
2023-05-12T00:23:57.810Z,17.84
2023-05-12T00:24:57.839Z,17.91
2023-05-12T00:25:57.877Z,17.86
2023-05-12T00:26:57.906Z,17.76
2023-05-12T00:27:57.943Z,17.86
2023-05-12T00:28:57.983Z,17.84
2023-05-12T00:29:58.012Z,17.81
2023-05-12T00:30:58.049Z,17.74
2023-05-12T00:31:58.133Z,17.80
2023-05-12T00:32:58.156Z,17.79
2023-05-12T00:33:58.164Z,17.74
2023-05-12T00:34:58.199Z,17.70
2023-05-12T00:35:58.224Z,17.70
2023-05-12T00:36:58.261Z,17.73
2023-05-12T00:37:58.293Z,17.68
2023-05-12T00:38:58.349Z,17.66
2023-05-12T00:39:58.362Z,17.62
2023-05-12T00:40:58.403Z,17.62
2023-05-12T00:41:58.436Z,17.60
2023-05-12T00:42:58.469Z,17.55
2023-05-12T00:43:58.501Z,17.58
2023-05-12T00:44:58.546Z,17.55
2023-05-12T00:45:58.590Z,17.55
2023-05-12T00:46:58.604Z,17.55
2023-05-12T00:47:58.701Z,17.53
2023-05-12T00:48:58.675Z,17.53
2023-05-12T00:49:58.709Z,17.47
2023-05-12T00:50:58.749Z,17.45
2023-05-12T00:51:58.776Z,17.39
2023-05-12T00:52:58.816Z,17.36
2023-05-12T00:53:58.846Z,17.43
2023-05-12T00:54:58.878Z,17.36
2023-05-12T00:55:58.919Z,17.42
2023-05-12T00:56:58.946Z,17.32
2023-05-12T00:57:58.991Z,17.33
2023-05-12T00:58:59.043Z,17.33
2023-05-12T00:59:59.071Z,17.30
2023-05-12T01:00:59.097Z,17.32
2023-05-12T01:01:59.119Z,17.28
2023-05-12T01:02:59.201Z,17.25
2023-05-12T01:03:59.205Z,17.24
2023-05-12T01:04:59.225Z,17.27
2023-05-12T01:05:59.262Z,17.25
2023-05-12T01:06:59.297Z,17.25
2023-05-12T01:07:59.328Z,17.28
2023-05-12T01:08:59.371Z,17.20
2023-05-12T01:09:59.408Z,17.21
2023-05-12T01:10:59.432Z,17.21
2023-05-12T01:11:59.475Z,17.21
2023-05-12T01:12:59.501Z,17.22
2023-05-12T01:13:59.541Z,17.24
2023-05-12T01:14:59.573Z,17.20
2023-05-12T01:15:59.603Z,17.24
2023-05-12T01:16:59.678Z,17.10
2023-05-12T01:17:59.705Z,17.09
2023-05-12T01:18:59.772Z,17.09
2023-05-12T01:19:59.738Z,17.09
2023-05-12T01:20:59.783Z,17.12
2023-05-12T01:21:59.809Z,17.10
2023-05-12T01:22:59.840Z,17.10
2023-05-12T01:23:59.871Z,17.09
2023-05-12T01:24:59.917Z,17.06
2023-05-12T01:25:59.944Z,17.07
2023-05-12T01:26:59.975Z,17.10
2023-05-12T01:28:00.013Z,17.05
2023-05-12T01:29:00.047Z,17.00
2023-05-12T01:30:00.103Z,16.98
2023-05-12T01:31:00.147Z,17.05
2023-05-12T01:32:00.154Z,17.00
2023-05-12T01:33:00.321Z,17.05
2023-05-12T01:34:00.260Z,17.02
2023-05-12T01:35:00.272Z,17.05
2023-05-12T01:36:00.287Z,17.06
2023-05-12T01:37:00.312Z,17.00
2023-05-12T01:38:00.349Z,16.99
2023-05-12T01:39:00.383Z,16.96
2023-05-12T01:40:00.425Z,16.99
2023-05-12T01:41:00.452Z,17.05
2023-05-12T01:42:00.485Z,16.96
2023-05-12T01:43:00.518Z,17.06
2023-05-12T01:44:00.575Z,16.98
2023-05-12T01:45:00.593Z,17.00
2023-05-12T01:46:00.664Z,17.03
2023-05-12T01:47:00.653Z,16.96
2023-05-12T01:48:00.732Z,16.96
2023-05-12T01:49:00.730Z,17.00
2023-05-12T01:50:00.756Z,16.87
2023-05-12T01:51:00.792Z,16.87
2023-05-12T01:52:00.829Z,16.77
2023-05-12T01:53:00.857Z,16.84
2023-05-12T01:54:00.899Z,16.90
2023-05-12T01:55:00.952Z,16.84
2023-05-12T01:56:00.959Z,16.82
2023-05-12T01:57:00.995Z,16.82
2023-05-12T01:58:01.034Z,16.87
2023-05-12T01:59:01.142Z,16.84
2023-05-12T02:00:01.094Z,16.87
2023-05-12T02:01:01.135Z,16.90
2023-05-12T02:02:01.219Z,16.78
2023-05-12T02:03:01.268Z,16.82
2023-05-12T02:04:01.314Z,16.85
2023-05-12T02:05:01.278Z,16.77
2023-05-12T02:06:01.297Z,16.78
2023-05-12T02:07:01.353Z,16.75
2023-05-12T02:08:01.366Z,16.69
2023-05-12T02:09:01.403Z,16.73
2023-05-12T02:10:01.475Z,16.75
2023-05-12T02:11:01.467Z,16.80
2023-05-12T02:12:01.509Z,16.80
2023-05-12T02:13:01.534Z,16.70
2023-05-12T02:14:01.570Z,16.73
2023-05-12T02:15:01.609Z,16.72
2023-05-12T02:16:01.676Z,16.73
2023-05-12T02:17:01.669Z,16.69
2023-05-12T02:18:01.741Z,16.69
2023-05-12T02:19:01.844Z,16.70
2023-05-12T02:20:01.776Z,16.60
2023-05-12T02:21:01.835Z,16.60
2023-05-12T02:22:01.851Z,16.62
2023-05-12T02:23:01.877Z,16.60
2023-05-12T02:24:01.911Z,16.55
2023-05-12T02:25:01.952Z,16.52
2023-05-12T02:26:01.987Z,16.50
2023-05-12T02:27:02.010Z,16.47
2023-05-12T02:28:02.052Z,16.52
2023-05-12T02:29:02.080Z,16.51
2023-05-12T02:30:02.117Z,16.51
2023-05-12T02:31:02.155Z,16.47
2023-05-12T02:32:02.271Z,16.40
2023-05-12T02:33:02.256Z,16.47
2023-05-12T02:34:04.385Z,16.42
2023-05-12T02:35:02.286Z,16.42
2023-05-12T02:36:02.316Z,16.42
2023-05-12T02:37:02.352Z,16.42
2023-05-12T02:38:02.382Z,16.40
2023-05-12T02:39:02.422Z,16.30
2023-05-12T02:40:02.453Z,16.33
2023-05-12T02:41:02.483Z,16.18
2023-05-12T02:42:02.514Z,16.32
2023-05-12T02:43:02.555Z,16.27
2023-05-12T02:44:02.587Z,16.30
2023-05-12T02:45:02.616Z,16.29
2023-05-12T02:46:02.711Z,16.18
2023-05-12T02:47:02.692Z,16.27
2023-05-12T02:48:02.802Z,16.22
2023-05-12T02:49:02.758Z,16.11
2023-05-12T02:50:02.790Z,16.18
2023-05-12T02:51:02.824Z,16.13
2023-05-12T02:52:02.867Z,16.22
2023-05-12T02:53:02.952Z,16.22
2023-05-12T02:54:02.924Z,16.06
2023-05-12T02:55:02.967Z,16.10
2023-05-12T02:56:02.992Z,16.10
2023-05-12T02:57:03.028Z,16.07
2023-05-12T02:58:03.063Z,16.04
2023-05-12T02:59:03.092Z,16.01
2023-05-12T03:00:03.136Z,16.04
2023-05-12T03:01:10.881Z,16.03
2023-05-12T03:02:03.231Z,15.99
2023-05-12T03:03:03.307Z,15.96
2023-05-12T03:04:03.261Z,15.92
2023-05-12T03:05:03.299Z,15.96
2023-05-12T03:06:03.354Z,15.93
2023-05-12T03:07:03.381Z,15.93
2023-05-12T03:08:03.399Z,15.96
2023-05-12T03:09:03.448Z,15.95
2023-05-12T03:10:03.462Z,15.92
2023-05-12T03:11:03.497Z,15.84
2023-05-12T03:12:03.531Z,15.77
2023-05-12T03:13:03.568Z,15.81
2023-05-12T03:14:03.601Z,15.71
2023-05-12T03:15:03.628Z,15.68
2023-05-12T03:16:03.687Z,15.70
2023-05-12T03:17:03.799Z,15.70
2023-05-12T03:18:03.767Z,15.73
2023-05-12T03:19:03.816Z,15.64
2023-05-12T03:20:03.818Z,15.59
2023-05-12T03:21:03.828Z,15.62
2023-05-12T03:22:03.878Z,15.52
2023-05-12T03:23:03.900Z,15.58
2023-05-12T03:24:03.935Z,15.58
2023-05-12T03:25:03.969Z,15.58
2023-05-12T03:26:03.998Z,15.64
2023-05-12T03:27:04.027Z,15.59
2023-05-12T03:28:04.062Z,15.58
2023-05-12T03:29:04.094Z,15.64
2023-05-12T03:30:04.129Z,15.48
2023-05-12T03:31:04.219Z,15.51
2023-05-12T03:32:04.197Z,15.51
2023-05-12T03:33:04.261Z,15.43
2023-05-12T03:34:04.262Z,15.44
2023-05-12T03:35:04.298Z,15.41
2023-05-12T03:36:04.331Z,15.43
2023-05-12T03:37:04.369Z,15.31
2023-05-12T03:38:04.399Z,15.33
2023-05-12T03:39:04.431Z,15.40
2023-05-12T03:40:04.472Z,15.34
2023-05-12T03:41:04.504Z,15.37
2023-05-12T03:42:04.552Z,15.30
2023-05-12T03:43:04.560Z,15.37
2023-05-12T03:44:04.595Z,15.33
2023-05-12T03:45:04.627Z,15.37
2023-05-12T03:46:04.720Z,15.33
2023-05-12T03:47:04.749Z,15.40
2023-05-12T03:48:04.851Z,15.34
2023-05-12T03:49:04.761Z,15.34
2023-05-12T03:50:04.796Z,15.34
2023-05-12T03:51:04.829Z,15.28
2023-05-12T03:52:04.862Z,15.28
2023-05-12T03:53:04.893Z,15.28
2023-05-12T03:54:04.928Z,15.28
2023-05-12T03:55:04.960Z,15.30
2023-05-12T03:56:04.992Z,15.31
2023-05-12T03:57:05.027Z,15.23
2023-05-12T03:58:05.067Z,15.33
2023-05-12T03:59:05.094Z,15.31
2023-05-12T04:00:05.138Z,15.25
2023-05-12T04:01:05.165Z,15.33
2023-05-12T04:02:05.232Z,15.28
2023-05-12T04:03:05.299Z,15.34
2023-05-12T04:04:05.290Z,15.28
2023-05-12T04:05:05.292Z,15.31
2023-05-12T04:06:05.330Z,15.22
2023-05-12T04:07:05.360Z,15.16
2023-05-12T04:08:05.399Z,15.27
2023-05-12T04:09:05.421Z,15.22
2023-05-12T04:10:05.472Z,15.19
2023-05-12T04:11:05.493Z,15.23
2023-05-12T04:12:05.525Z,15.20
2023-05-12T04:13:05.564Z,15.13
2023-05-12T04:14:05.591Z,15.22
2023-05-12T04:15:05.630Z,15.27
2023-05-12T04:16:05.710Z,15.22
2023-05-12T04:17:05.691Z,15.25
2023-05-12T04:18:05.732Z,15.23
2023-05-12T04:19:05.791Z,15.22
2023-05-12T04:20:05.791Z,15.12
2023-05-12T04:21:05.820Z,15.15
2023-05-12T04:22:05.852Z,15.18
2023-05-12T04:23:05.887Z,15.25
2023-05-12T04:24:05.924Z,15.19
2023-05-12T04:25:05.955Z,15.20
2023-05-12T04:26:05.992Z,15.28
2023-05-12T04:27:06.030Z,15.19
2023-05-12T04:28:06.071Z,15.18
2023-05-12T04:29:06.179Z,15.19
2023-05-12T04:30:06.118Z,15.20
2023-05-12T04:31:06.170Z,15.22
2023-05-12T04:32:06.234Z,15.27
2023-05-12T04:33:06.236Z,15.23
2023-05-12T04:34:06.255Z,15.25
2023-05-12T04:35:06.287Z,15.25
2023-05-12T04:36:06.322Z,15.31
2023-05-12T04:37:06.357Z,15.25
2023-05-12T04:38:06.387Z,15.27
2023-05-12T04:39:06.419Z,15.35
2023-05-12T04:40:06.452Z,15.35
2023-05-12T04:41:06.488Z,15.27
2023-05-12T04:42:06.532Z,15.35
2023-05-12T04:43:06.557Z,15.33
2023-05-12T04:44:06.585Z,15.33
2023-05-12T04:45:06.634Z,15.49
2023-05-12T04:46:06.664Z,15.41
2023-05-12T04:47:06.692Z,15.41
2023-05-12T04:48:06.715Z,15.52
2023-05-12T04:49:06.754Z,15.55
2023-05-12T04:51:19.031Z,15.51
2023-05-12T04:52:19.058Z,15.59
2023-05-12T04:54:23.121Z,15.56
2023-05-12T04:55:23.136Z,15.59
2023-05-12T04:57:27.195Z,15.55
2023-05-12T04:58:27.214Z,15.53
2023-05-12T05:00:31.293Z,15.58
2023-05-12T05:01:31.327Z,15.59
2023-05-12T05:03:24.374Z,15.55
2023-05-12T05:04:24.308Z,15.59
2023-05-12T05:06:28.379Z,15.60
2023-05-12T05:07:28.385Z,15.58
2023-05-12T05:09:33.389Z,15.55
2023-05-12T05:10:32.463Z,15.64
2023-05-12T05:12:36.543Z,15.55
2023-05-12T05:13:36.549Z,15.62
2023-05-12T05:14:36.576Z,15.62
2023-05-12T05:15:36.666Z,15.62
2023-05-12T05:16:36.653Z,15.66
2023-05-12T05:17:36.723Z,15.66
2023-05-12T05:18:36.752Z,15.66
2023-05-12T05:19:50.908Z,15.68
2023-05-12T05:20:40.822Z,15.71
2023-05-12T05:21:36.811Z,15.77
2023-05-12T05:22:36.836Z,15.78
2023-05-12T05:23:36.868Z,15.81
2023-05-12T05:24:36.904Z,15.89
2023-05-12T05:25:36.940Z,15.89
2023-05-12T05:26:36.970Z,15.85
2023-05-12T05:27:37.001Z,15.88
2023-05-12T05:28:37.037Z,15.93
2023-05-12T05:29:37.085Z,15.93
2023-05-12T05:30:37.114Z,15.98
2023-05-12T05:31:37.177Z,15.96
2023-05-12T05:32:37.215Z,16.08
2023-05-12T05:33:37.203Z,16.08
2023-05-12T05:34:37.293Z,15.96
2023-05-12T05:35:37.268Z,16.08
2023-05-12T05:36:37.300Z,16.06
2023-05-12T05:37:37.353Z,16.10
2023-05-12T05:38:37.401Z,16.13
2023-05-12T05:39:37.403Z,16.11
2023-05-12T05:40:51.605Z,16.25
2023-05-12T05:41:37.470Z,16.17
2023-05-12T05:42:37.504Z,16.26
2023-05-12T05:43:37.540Z,16.26
2023-05-12T05:44:37.577Z,16.34
2023-05-12T05:45:37.609Z,16.33
2023-05-12T05:46:37.648Z,16.41
2023-05-12T05:47:37.803Z,16.41
2023-05-12T05:48:37.700Z,16.42
2023-05-12T05:49:37.733Z,16.47
2023-05-12T05:50:37.782Z,16.41
2023-05-12T05:51:37.802Z,16.48
2023-05-12T05:52:37.839Z,16.48
2023-05-12T05:53:37.875Z,16.63
2023-05-12T05:54:37.910Z,16.55
2023-05-12T05:55:37.943Z,16.65
2023-05-12T05:56:37.979Z,16.65
2023-05-12T05:57:38.004Z,16.67
2023-05-12T05:58:38.034Z,16.69
2023-05-12T05:59:38.065Z,16.72
2023-05-12T06:00:38.098Z,16.70
2023-05-12T06:01:38.337Z,16.85
2023-05-12T06:02:38.318Z,16.87
2023-05-12T06:03:38.381Z,16.77
2023-05-12T06:04:38.236Z,16.77
2023-05-12T06:05:38.270Z,16.91
2023-05-12T06:06:38.306Z,16.90
2023-05-12T06:07:38.332Z,16.99
2023-05-12T06:08:38.376Z,16.98
2023-05-12T06:09:38.415Z,17.02
2023-05-12T06:10:38.436Z,17.12
2023-05-12T06:11:38.469Z,17.07
2023-05-12T06:12:38.521Z,17.07
2023-05-12T06:13:38.538Z,17.15
2023-05-12T06:14:38.569Z,17.28
2023-05-12T06:15:38.627Z,17.20
2023-05-12T06:16:38.681Z,17.15
2023-05-12T06:17:38.740Z,17.33
2023-05-12T06:18:38.789Z,17.33
2023-05-12T06:19:38.750Z,17.38
2023-05-12T06:20:38.774Z,17.25
2023-05-12T06:21:38.815Z,17.39
2023-05-12T06:22:38.840Z,17.40
2023-05-12T06:23:38.880Z,17.46
2023-05-12T06:24:38.914Z,17.53
2023-05-12T06:25:38.953Z,17.51
2023-05-12T06:26:38.978Z,17.51
2023-05-12T06:27:39.020Z,17.58
2023-05-12T06:28:39.045Z,17.58
2023-05-12T06:29:39.081Z,17.65
2023-05-12T06:30:39.119Z,17.62
2023-05-12T06:31:39.208Z,17.66
2023-05-12T06:32:39.288Z,17.77
2023-05-12T06:33:39.235Z,17.70
2023-05-12T06:34:39.268Z,17.80
2023-05-12T06:35:39.296Z,17.73
2023-05-12T06:36:39.324Z,17.87
2023-05-12T06:37:39.356Z,17.81
2023-05-12T06:38:39.392Z,17.94
2023-05-12T06:39:39.421Z,17.98
2023-05-12T06:40:39.537Z,17.98
2023-05-12T06:41:39.501Z,18.05
2023-05-12T06:42:39.555Z,17.99
2023-05-12T06:43:39.583Z,18.07
2023-05-12T06:44:41.753Z,18.14
2023-05-12T06:45:39.629Z,18.11
2023-05-12T06:46:39.811Z,18.21
2023-05-12T06:47:39.729Z,18.28
2023-05-12T06:48:39.747Z,18.36
2023-05-12T06:49:39.770Z,18.39
2023-05-12T06:50:39.801Z,18.49
2023-05-12T06:51:39.901Z,18.49
2023-05-12T06:52:39.872Z,18.54
2023-05-12T06:53:39.910Z,18.64
2023-05-12T06:54:39.941Z,18.72
2023-05-12T06:55:39.974Z,18.75
2023-05-12T06:56:40.013Z,18.84
2023-05-12T06:57:40.042Z,18.84
2023-05-12T06:58:40.078Z,18.82
2023-05-12T06:59:40.115Z,18.96
2023-05-12T07:00:40.157Z,18.86
2023-05-12T07:01:40.216Z,18.89
2023-05-12T07:02:40.263Z,18.89
2023-05-12T07:03:40.271Z,19.01
2023-05-12T07:04:40.286Z,19.09
2023-05-12T07:05:40.332Z,19.09
2023-05-12T07:06:40.360Z,19.12
2023-05-12T07:07:40.428Z,19.16
2023-05-12T07:08:40.428Z,19.28
2023-05-12T07:09:40.458Z,19.31
2023-05-12T07:10:40.495Z,19.31
2023-05-12T07:11:40.530Z,19.35
2023-05-12T07:12:40.590Z,19.42
2023-05-12T07:13:40.600Z,19.49
2023-05-12T07:14:40.629Z,19.40
2023-05-12T07:15:40.685Z,19.53
2023-05-12T07:16:40.703Z,19.57
2023-05-12T07:17:40.743Z,19.62
2023-05-12T07:18:40.807Z,19.61
2023-05-12T07:19:40.811Z,19.76
2023-05-12T07:20:40.841Z,19.72
2023-05-12T07:21:40.875Z,19.80
2023-05-12T07:22:40.916Z,19.80
2023-05-12T07:23:40.956Z,19.92
2023-05-12T07:24:40.987Z,19.95
2023-05-12T07:25:41.038Z,19.94
2023-05-12T07:26:41.050Z,20.02
2023-05-12T07:27:41.087Z,20.05
2023-05-12T07:28:41.124Z,20.19
2023-05-12T07:29:41.157Z,20.16
2023-05-12T07:30:41.196Z,20.20
2023-05-12T07:31:41.330Z,20.30
2023-05-12T07:32:41.301Z,20.38
2023-05-12T07:33:41.319Z,20.42
2023-05-12T07:34:41.337Z,20.53
2023-05-12T07:35:41.371Z,20.54
2023-05-12T07:36:41.409Z,20.61
2023-05-12T07:37:41.454Z,20.68
2023-05-12T07:38:41.477Z,20.71
2023-05-12T07:39:42.123Z,20.69
2023-05-12T07:40:41.553Z,20.78
2023-05-12T07:41:41.590Z,20.79
2023-05-12T07:42:41.620Z,20.79
2023-05-12T07:43:41.655Z,20.87
2023-05-12T07:44:41.698Z,20.88
2023-05-12T07:45:41.731Z,20.94
2023-05-12T07:46:41.824Z,20.97
2023-05-12T07:47:41.846Z,21.01
2023-05-12T07:48:41.851Z,21.06
2023-05-12T07:49:41.876Z,21.09
2023-05-12T07:50:41.911Z,21.15
2023-05-12T07:51:41.947Z,21.26
2023-05-12T07:52:41.986Z,21.26
2023-05-12T07:53:42.028Z,21.36
2023-05-12T07:54:42.073Z,21.43
2023-05-12T07:55:42.096Z,21.51
2023-05-12T07:56:42.133Z,21.49
2023-05-12T07:57:42.178Z,21.59
2023-05-12T07:58:42.200Z,21.70
2023-05-12T07:59:42.237Z,21.64
2023-05-12T08:00:42.268Z,21.74
2023-05-12T08:01:42.328Z,21.79
2023-05-12T08:02:42.650Z,21.85
2023-05-12T08:03:42.452Z,21.85
2023-05-12T08:04:44.428Z,21.89
2023-05-12T08:05:42.452Z,21.99
2023-05-12T08:06:42.484Z,22.02
2023-05-12T08:07:42.524Z,22.08
2023-05-12T08:08:42.582Z,22.26
2023-05-12T08:09:42.597Z,22.30
2023-05-12T08:10:42.658Z,22.24
2023-05-12T08:11:44.695Z,22.42
2023-05-12T08:12:42.708Z,22.36
2023-05-12T08:13:42.757Z,22.46
2023-05-12T08:14:42.780Z,22.46
2023-05-12T08:15:42.817Z,22.52
2023-05-12T08:16:42.889Z,22.64
2023-05-12T08:17:42.912Z,22.70
2023-05-12T08:18:42.942Z,22.75
2023-05-12T08:19:42.960Z,22.81
2023-05-12T08:20:43.005Z,22.79
2023-05-12T08:21:43.044Z,22.85
2023-05-12T08:22:43.090Z,22.93
2023-05-12T08:23:43.116Z,23.01
2023-05-12T08:24:43.152Z,23.07
2023-05-12T08:25:43.195Z,23.06
2023-05-12T08:26:43.224Z,23.04
2023-05-12T08:27:43.420Z,22.97
2023-05-12T08:28:43.306Z,23.06
2023-05-12T08:29:43.328Z,23.22
2023-05-12T08:30:43.380Z,23.18
2023-05-12T08:31:43.443Z,23.22
2023-05-12T08:32:43.510Z,23.35
2023-05-12T08:33:43.480Z,23.37
2023-05-12T08:34:43.533Z,23.35
2023-05-12T08:35:43.555Z,23.44
2023-05-12T08:36:43.595Z,23.45
2023-05-12T08:37:43.635Z,23.59
2023-05-12T08:38:43.671Z,23.60
2023-05-12T08:39:43.711Z,23.72
2023-05-12T08:40:44.550Z,23.77
2023-05-12T08:41:43.779Z,23.87
2023-05-12T08:42:43.846Z,23.87
2023-05-12T08:43:43.986Z,23.82
2023-05-12T08:44:43.882Z,23.90
2023-05-12T08:45:43.939Z,23.87
2023-05-12T08:46:44.021Z,23.93
2023-05-12T08:47:44.133Z,23.96
2023-05-12T08:48:44.038Z,23.97
2023-05-12T08:49:44.092Z,24.09
2023-05-12T08:50:44.118Z,24.06
2023-05-12T08:51:46.662Z,24.06
2023-05-12T08:52:44.189Z,24.12
2023-05-12T08:53:44.222Z,24.15
2023-05-12T08:54:52.642Z,24.24
2023-05-12T08:55:53.360Z,24.23
2023-05-12T08:57:44.368Z,24.31
2023-05-12T08:58:44.404Z,24.37
2023-05-12T08:59:44.588Z,24.36
2023-05-12T09:00:44.528Z,24.30
2023-05-12T09:01:44.574Z,24.34
2023-05-12T09:02:53.265Z,24.33
2023-05-12T09:03:44.617Z,24.42
2023-05-12T09:04:44.672Z,24.45
2023-05-12T09:05:44.675Z,24.60
2023-05-12T09:06:44.716Z,24.68
2023-05-12T09:07:44.751Z,24.83
2023-05-12T09:08:44.788Z,24.87
2023-05-12T09:09:44.826Z,24.90
2023-05-12T09:10:44.874Z,24.92
2023-05-12T09:11:44.892Z,24.99
2023-05-12T09:12:44.941Z,25.04
2023-05-12T09:13:44.969Z,25.05
2023-05-12T09:14:45.009Z,25.16
2023-05-12T09:15:45.177Z,25.19
2023-05-12T09:16:45.201Z,25.09
2023-05-12T09:17:45.163Z,25.16
2023-05-12T09:18:45.192Z,25.23
2023-05-12T09:19:45.200Z,25.24
2023-05-12T09:20:45.236Z,25.23
2023-05-12T09:21:45.275Z,25.22
2023-05-12T09:22:45.316Z,25.26
2023-05-12T09:23:45.354Z,25.24
2023-05-12T09:24:45.398Z,25.22
2023-05-12T09:25:45.433Z,25.19
2023-05-12T09:26:45.474Z,25.19
2023-05-12T09:27:45.506Z,25.19
2023-05-12T09:28:45.544Z,25.22
2023-05-12T09:29:55.602Z,25.39
2023-05-12T09:30:45.630Z,25.45
2023-05-12T09:31:45.727Z,25.51
2023-05-12T09:32:45.783Z,25.59
2023-05-12T09:33:45.764Z,25.66
2023-05-12T09:34:45.773Z,25.83
2023-05-12T09:35:45.830Z,25.79
2023-05-12T09:36:45.854Z,25.82
2023-05-12T09:37:45.932Z,25.85
2023-05-12T09:38:45.933Z,26.00
2023-05-12T09:39:45.969Z,26.08
2023-05-12T09:40:46.000Z,26.08
2023-05-12T09:41:46.047Z,26.20
2023-05-12T09:42:46.081Z,26.23
2023-05-12T09:43:46.152Z,26.36
2023-05-12T09:44:46.161Z,26.38
2023-05-12T09:45:46.219Z,26.38
2023-05-12T09:46:46.240Z,26.47
2023-05-12T09:47:46.295Z,26.34
2023-05-12T09:48:46.314Z,26.42
2023-05-12T09:49:46.350Z,26.53
2023-05-12T09:50:47.728Z,26.61
2023-05-12T09:51:46.420Z,26.44
2023-05-12T09:52:46.463Z,26.56
2023-05-12T09:53:46.497Z,26.49
2023-05-12T09:54:46.539Z,26.46
2023-05-12T09:55:46.606Z,26.49
2023-05-12T09:56:46.618Z,26.49
2023-05-12T09:57:46.656Z,26.60
2023-05-12T09:58:46.692Z,26.66
2023-05-12T09:59:46.727Z,26.61
2023-05-12T10:01:46.838Z,26.66
2023-05-12T10:02:46.889Z,26.71
2023-05-12T10:03:46.889Z,26.81
2023-05-12T10:04:46.963Z,26.93
2023-05-12T10:05:46.961Z,26.96
2023-05-12T10:06:47.002Z,27.02
2023-05-12T10:07:47.036Z,26.98
2023-05-12T10:08:47.083Z,26.90
2023-05-12T10:09:47.135Z,26.93
2023-05-12T10:10:47.189Z,26.93
2023-05-12T10:11:47.197Z,27.03
2023-05-12T10:12:47.239Z,27.03
2023-05-12T10:13:47.269Z,27.24
2023-05-12T10:14:47.324Z,27.18
2023-05-12T10:15:47.351Z,27.27
2023-05-12T10:16:47.427Z,27.39
2023-05-12T10:17:47.480Z,27.39
2023-05-12T10:18:47.497Z,27.40
2023-05-12T10:19:47.726Z,27.53
2023-05-12T10:20:47.552Z,27.52
2023-05-12T10:21:47.615Z,27.58
2023-05-12T10:22:47.625Z,27.63
2023-05-12T10:23:47.661Z,27.71
2023-05-12T10:24:47.718Z,27.63
2023-05-12T10:25:47.755Z,27.68
2023-05-12T10:26:47.833Z,27.58
2023-05-12T10:27:47.825Z,27.50
2023-05-12T10:28:47.860Z,27.38
2023-05-12T10:29:47.897Z,27.28
2023-05-12T10:30:47.937Z,27.33
2023-05-12T10:31:48.124Z,27.34
2023-05-12T10:32:48.084Z,27.38
2023-05-12T10:33:48.057Z,27.52
2023-05-12T10:34:48.096Z,27.68
2023-05-12T10:35:49.562Z,27.81
2023-05-12T10:36:48.182Z,27.84
2023-05-12T10:37:48.212Z,27.87
2023-05-12T10:38:48.260Z,27.91
2023-05-12T10:39:48.330Z,28.06
2023-05-12T10:40:48.334Z,28.11
2023-05-12T10:41:48.380Z,28.18
2023-05-12T10:42:48.425Z,28.17
2023-05-12T10:43:48.454Z,28.17
2023-05-12T10:44:48.494Z,28.15
2023-05-12T10:45:48.529Z,28.18
2023-05-12T10:46:48.626Z,28.21
2023-05-12T10:47:48.658Z,28.28
2023-05-12T10:48:48.649Z,28.33
2023-05-12T10:49:48.692Z,28.30
2023-05-12T10:50:55.932Z,28.17
2023-05-12T10:52:52.790Z,28.30
2023-05-12T10:53:54.791Z,28.32
2023-05-12T10:55:46.461Z,28.42
2023-05-12T10:56:46.555Z,28.42
2023-05-12T10:58:39.631Z,28.55
2023-05-12T10:59:39.633Z,28.67
2023-05-12T11:01:32.573Z,28.80
2023-05-12T11:02:33.819Z,28.76
2023-05-12T11:04:37.383Z,28.69
2023-05-12T11:05:36.782Z,28.73
2023-05-12T11:07:30.611Z,28.82
2023-05-12T11:08:30.466Z,28.82
2023-05-12T11:10:33.947Z,28.95
2023-05-12T11:11:34.242Z,28.94
2023-05-12T11:13:26.839Z,28.80
2023-05-12T11:14:26.856Z,28.95
2023-05-12T11:16:20.070Z,28.92
2023-05-12T11:17:20.064Z,28.95
2023-05-12T11:19:35.230Z,28.97
2023-05-12T11:20:35.263Z,28.98
2023-05-12T11:22:28.324Z,29.02
2023-05-12T11:23:28.301Z,29.00
2023-05-12T11:25:21.872Z,28.89
2023-05-12T11:26:21.513Z,29.02
2023-05-12T11:28:14.570Z,29.08
2023-05-12T11:29:14.574Z,29.12
2023-05-12T11:31:07.641Z,29.08
2023-05-12T11:32:07.807Z,29.07
2023-05-12T11:34:13.409Z,28.73
2023-05-12T11:35:11.737Z,28.62
2023-05-12T11:37:04.767Z,28.32
2023-05-12T11:38:04.800Z,28.38
2023-05-12T11:39:58.114Z,28.62
2023-05-12T11:40:58.029Z,28.69
2023-05-12T11:42:51.061Z,28.88
2023-05-12T11:43:51.065Z,28.98
2023-05-12T11:45:44.138Z,29.10
2023-05-12T11:46:44.147Z,29.26
2023-05-12T11:48:48.408Z,29.32
2023-05-12T11:49:48.456Z,29.49
2023-05-12T11:51:41.435Z,29.42
2023-05-12T11:52:41.475Z,29.55
2023-05-12T11:54:45.572Z,29.39
2023-05-12T11:55:45.606Z,29.37
2023-05-12T11:57:38.637Z,29.35
2023-05-12T11:58:38.661Z,29.42
2023-05-12T12:00:42.792Z,29.58
2023-05-12T12:01:42.831Z,29.70
2023-05-12T12:03:36.194Z,29.64
2023-05-12T12:04:36.249Z,29.73
2023-05-12T12:05:36.126Z,29.64
2023-05-12T12:06:36.161Z,29.66
2023-05-12T12:07:36.208Z,29.67
2023-05-12T12:08:36.242Z,29.66
2023-05-12T12:09:36.346Z,29.66
2023-05-12T12:10:36.337Z,29.84
2023-05-12T12:11:36.404Z,29.78
2023-05-12T12:12:36.405Z,29.74
2023-05-12T12:13:36.451Z,29.81
2023-05-12T12:14:36.489Z,29.82
2023-05-12T12:15:36.551Z,29.85
2023-05-12T12:16:36.674Z,30.00
2023-05-12T12:17:36.702Z,30.11
2023-05-12T12:18:36.673Z,30.08
2023-05-12T12:19:36.695Z,30.16
2023-05-12T12:20:36.758Z,30.11
2023-05-12T12:21:36.779Z,30.10
2023-05-12T12:22:36.826Z,30.08
2023-05-12T12:23:50.024Z,30.19
2023-05-12T12:24:36.898Z,30.18
2023-05-12T12:25:36.938Z,30.32
2023-05-12T12:26:38.944Z,30.26
2023-05-12T12:27:37.048Z,30.11
2023-05-12T12:28:37.066Z,30.01
2023-05-12T12:29:37.108Z,29.81
2023-05-12T12:30:37.150Z,29.70
2023-05-12T12:31:37.206Z,29.52
2023-05-12T12:32:37.263Z,29.55
2023-05-12T12:33:37.274Z,29.64
2023-05-12T12:34:37.318Z,29.64
2023-05-12T12:35:37.357Z,29.78
2023-05-12T12:36:37.411Z,29.73
2023-05-12T12:37:37.432Z,29.84
2023-05-12T12:38:37.471Z,29.70
2023-05-12T12:39:37.514Z,29.84
2023-05-12T12:40:37.556Z,29.88
2023-05-12T12:41:37.591Z,29.85
2023-05-12T12:42:37.724Z,29.95
2023-05-12T12:43:37.684Z,29.95
2023-05-12T12:44:37.736Z,29.92
2023-05-12T12:45:37.759Z,29.82
2023-05-12T12:46:37.878Z,29.74
2023-05-12T12:47:37.904Z,29.64
2023-05-12T12:48:37.880Z,29.57
2023-05-12T12:49:37.929Z,29.57
2023-05-12T12:50:37.962Z,29.57
2023-05-12T12:51:45.669Z,29.58
2023-05-12T12:52:38.070Z,29.48
2023-05-12T12:53:38.093Z,29.39
2023-05-12T12:54:38.133Z,29.30
2023-05-12T12:55:38.186Z,29.33
2023-05-12T12:56:38.210Z,29.41
2023-05-12T12:57:38.265Z,29.42
2023-05-12T12:58:38.292Z,29.47
2023-05-12T12:59:38.336Z,29.54
2023-05-12T13:00:38.394Z,29.48
2023-05-12T13:01:38.421Z,29.54
2023-05-12T13:02:38.606Z,29.69
2023-05-12T13:03:38.524Z,29.58
2023-05-12T13:04:38.550Z,29.52
2023-05-12T13:05:38.579Z,29.49
2023-05-12T13:06:38.619Z,29.52
2023-05-12T13:07:38.657Z,29.54
2023-05-12T13:08:38.703Z,29.48
2023-05-12T13:09:38.745Z,29.48
2023-05-12T13:10:38.785Z,29.47
2023-05-12T13:11:38.819Z,29.47
2023-05-12T13:12:38.862Z,29.45
2023-05-12T13:13:38.918Z,29.35
2023-05-12T13:14:38.950Z,29.27
2023-05-12T13:15:38.987Z,29.35
2023-05-12T13:16:39.067Z,29.32
2023-05-12T13:17:39.121Z,29.41
2023-05-12T13:18:39.137Z,29.36
2023-05-12T13:19:39.154Z,29.39
2023-05-12T13:20:39.191Z,29.47
2023-05-12T13:21:39.241Z,29.47
2023-05-12T13:22:39.280Z,29.48
2023-05-12T13:23:39.322Z,29.54
2023-05-12T13:24:39.359Z,29.60
2023-05-12T13:25:39.419Z,29.57
2023-05-12T13:26:39.451Z,29.63
2023-05-12T13:27:39.491Z,29.64